Time;durP1;ratioP1;P1;durP2;ratioP2;P2;SDS_P1;SDS_P2;PMS_P1;PMS_P2;Temp;Humidity;BMP_temperature;BMP_pressure;BME280_temperature;BME280_humidity;BME280_pressure;Samples;Min_cycle;Max_cycle;Signal;HPM_P1;HPM_P2
2024/02/07 00:02:03;;;;;;;17.35;6.70;;;12.40;99.90;;;;;;5018844;28;20037;-74
2024/02/07 00:04:28;;;;;;;21.17;6.82;;;12.30;99.90;;;;;;5029545;28;20619;-74
2024/02/07 00:06:54;;;;;;;15.63;6.05;;;12.30;99.90;;;;;;5015611;28;20379;-74
2024/02/07 00:09:20;;;;;;;15.23;5.55;;;12.30;99.90;;;;;;5022721;28;20499;-74
2024/02/07 00:11:46;;;;;;;21.70;6.07;;;12.30;99.90;;;;;;5030610;28;20616;-75
2024/02/07 00:14:12;;;;;;;12.77;5.93;;;12.20;99.90;;;;;;5021567;28;20040;-74
2024/02/07 00:16:38;;;;;;;11.23;5.70;;;12.30;99.90;;;;;;5023906;28;20105;-75
2024/02/07 00:19:03;;;;;;;14.70;5.38;;;12.30;99.90;;;;;;5026190;28;20521;-75
2024/02/07 00:21:29;;;;;;;18.70;6.00;;;12.30;99.90;;;;;;5031931;28;20505;-74
2024/02/07 00:23:55;;;;;;;10.70;5.60;;;12.20;99.90;;;;;;5021177;28;20033;-74
2024/02/07 00:26:20;;;;;;;16.73;6.13;;;12.30;99.90;;;;;;5024742;28;20021;-75
2024/02/07 00:28:46;;;;;;;18.25;7.45;;;12.30;99.90;;;;;;5023843;28;20043;-74
2024/02/07 00:31:12;;;;;;;12.65;6.00;;;12.30;99.90;;;;;;5024638;28;20482;-74
2024/02/07 00:33:38;;;;;;;13.30;6.20;;;12.30;99.90;;;;;;5029429;28;20037;-74
2024/02/07 00:36:04;;;;;;;14.40;5.95;;;12.20;99.90;;;;;;5023899;28;20114;-75
2024/02/07 00:38:30;;;;;;;12.70;6.30;;;12.40;99.90;;;;;;5026813;28;20022;-75
2024/02/07 00:40:55;;;;;;;15.52;6.10;;;12.30;99.90;;;;;;5022763;28;20063;-74
2024/02/07 00:43:21;;;;;;;12.05;5.85;;;12.30;99.90;;;;;;5030819;28;20033;-74
2024/02/07 00:45:47;;;;;;;10.55;6.28;;;12.30;99.90;;;;;;5027360;28;20017;-74
2024/02/07 00:48:14;;;;;;;15.27;6.07;;;12.30;99.90;;;;;;5022595;28;20041;-74
2024/02/07 00:50:40;;;;;;;14.90;6.50;;;12.20;99.90;;;;;;5021731;28;20109;-75
2024/02/07 00:53:06;;;;;;;10.50;6.43;;;12.30;99.90;;;;;;5025876;28;20101;-75
2024/02/07 00:55:32;;;;;;;15.65;6.53;;;12.30;99.90;;;;;;5022544;28;20030;-75
2024/02/07 00:57:58;;;;;;;12.45;6.00;;;12.20;99.90;;;;;;5023517;28;20029;-74
2024/02/07 01:00:25;;;;;;;20.02;6.75;;;12.30;99.90;;;;;;5027841;28;20048;-75
2024/02/07 01:02:51;;;;;;;18.25;6.72;;;12.20;99.90;;;;;;5020407;28;20100;-75
2024/02/07 01:05:18;;;;;;;15.27;6.70;;;12.30;99.90;;;;;;5026440;28;20036;-75
2024/02/07 01:07:44;;;;;;;12.70;5.75;;;12.30;99.90;;;;;;5022711;28;20514;-74
2024/02/07 01:10:10;;;;;;;16.05;6.50;;;12.20;99.90;;;;;;5024853;28;20026;-75
2024/02/07 01:12:36;;;;;;;14.77;6.20;;;12.20;99.90;;;;;;5021017;28;20045;-75
2024/02/07 01:15:02;;;;;;;16.52;6.30;;;12.20;99.90;;;;;;5027382;28;20034;-74
2024/02/07 01:17:27;;;;;;;13.25;6.28;;;12.30;99.90;;;;;;5027086;28;20147;-75
2024/02/07 01:19:54;;;;;;;12.73;5.53;;;12.20;99.90;;;;;;5021418;28;20505;-74
2024/02/07 01:22:19;;;;;;;12.45;6.03;;;12.20;99.90;;;;;;5023553;28;20025;-75
2024/02/07 01:24:45;;;;;;;13.30;6.80;;;12.10;99.90;;;;;;5023074;28;20030;-75
2024/02/07 01:27:11;;;;;;;11.88;5.65;;;12.10;99.90;;;;;;5025603;28;20502;-75
2024/02/07 01:29:39;;;;;;;18.60;6.68;;;12.10;99.90;;;;;;5031103;28;20060;-76
2024/02/07 01:32:05;;;;;;;10.55;6.22;;;12.10;99.90;;;;;;5019869;28;20551;-75
2024/02/07 01:34:31;;;;;;;13.52;6.47;;;12.20;99.90;;;;;;5024978;28;20042;-75
2024/02/07 01:36:58;;;;;;;13.15;5.00;;;12.20;99.90;;;;;;5025842;28;20052;-75
2024/02/07 01:39:24;;;;;;;14.20;5.63;;;12.10;99.90;;;;;;5021318;28;20038;-75
2024/02/07 01:41:58;;;;;;;14.15;6.00;;;12.10;99.90;;;;;;5021858;28;20029;-76
2024/02/07 01:44:31;;;;;;;12.65;5.25;;;12.10;99.90;;;;;;5025234;28;20039;-75
2024/02/07 01:47:11;;;;;;;14.25;5.53;;;12.10;99.90;;;;;;5019840;28;20045;-75
2024/02/07 01:49:41;;;;;;;12.05;5.60;;;12.10;99.90;;;;;;5027886;28;20037;-75
2024/02/07 01:52:08;;;;;;;12.20;5.60;;;12.10;99.90;;;;;;5023269;28;20247;-75
2024/02/07 01:54:34;;;;;;;12.38;5.97;;;12.10;99.90;;;;;;5021930;28;20037;-76
2024/02/07 01:57:01;;;;;;;11.65;5.85;;;12.10;99.90;;;;;;5032303;28;20024;-76
2024/02/07 01:59:27;;;;;;;13.10;6.10;;;12.10;99.90;;;;;;5028456;28;20050;-76
2024/02/07 02:01:53;;;;;;;12.63;6.20;;;12.10;99.90;;;;;;5018389;28;20022;-75
2024/02/07 02:04:19;;;;;;;9.73;5.32;;;12.10;99.90;;;;;;5026053;28;20094;-74
2024/02/07 02:06:44;;;;;;;16.02;6.97;;;12.10;99.90;;;;;;5022357;28;20018;-75
2024/02/07 02:09:10;;;;;;;13.23;5.80;;;12.10;99.90;;;;;;5021609;28;20068;-75
2024/02/07 02:11:40;;;;;;;12.02;5.63;;;12.10;99.90;;;;;;5022295;28;20604;-75
2024/02/07 02:14:07;;;;;;;16.25;6.85;;;12.10;99.90;;;;;;5020690;28;20034;-75
2024/02/07 02:16:33;;;;;;;15.10;6.40;;;12.10;99.90;;;;;;5024681;28;20060;-75
2024/02/07 02:18:59;;;;;;;16.67;6.20;;;12.20;99.90;;;;;;5021561;28;20057;-76
2024/02/07 02:21:28;;;;;;;12.65;6.10;;;12.10;99.90;;;;;;5023061;28;20018;-75
2024/02/07 02:24:11;;;;;;;18.05;6.63;;;12.10;99.90;;;;;;5020499;28;20434;-76
2024/02/07 02:26:50;;;;;;;15.45;6.47;;;12.00;99.90;;;;;;5027810;28;20089;-76
2024/02/07 02:29:21;;;;;;;13.77;6.00;;;12.00;99.90;;;;;;5035010;28;20069;-76
2024/02/07 02:31:51;;;;;;;16.23;6.60;;;12.00;99.90;;;;;;5027382;28;20041;-77
2024/02/07 02:34:18;;;;;;;13.88;5.65;;;11.90;99.90;;;;;;5022324;28;20505;-78
2024/02/07 02:36:44;;;;;;;10.18;5.40;;;11.90;99.90;;;;;;5017659;28;20060;-76
2024/02/07 02:39:10;;;;;;;8.32;4.82;;;11.90;99.90;;;;;;5020769;28;20108;-77
2024/02/07 02:41:36;;;;;;;10.43;5.70;;;11.90;99.90;;;;;;5020911;28;20104;-77
2024/02/07 02:44:02;;;;;;;14.30;5.47;;;11.90;99.90;;;;;;5022083;28;20025;-77
2024/02/07 02:46:27;;;;;;;12.35;5.10;;;11.90;99.90;;;;;;5015282;28;20033;-78
2024/02/07 02:48:53;;;;;;;11.25;5.20;;;11.90;99.90;;;;;;5019226;28;20044;-77
2024/02/07 02:51:20;;;;;;;7.95;4.95;;;12.00;99.90;;;;;;5018619;28;20508;-77
2024/02/07 02:53:45;;;;;;;12.80;4.57;;;12.00;99.90;;;;;;5022003;28;20075;-77
2024/02/07 02:56:12;;;;;;;11.30;5.40;;;12.00;99.90;;;;;;5022509;28;20029;-76
2024/02/07 02:58:38;;;;;;;10.73;4.85;;;11.90;99.90;;;;;;5021772;28;20036;-77
2024/02/07 03:01:04;;;;;;;11.80;5.60;;;11.90;99.90;;;;;;5022259;28;20026;-77
2024/02/07 03:03:31;;;;;;;13.05;4.90;;;11.90;99.90;;;;;;5017793;28;20033;-76
2024/02/07 03:06:00;;;;;;;8.98;4.43;;;11.90;99.90;;;;;;5022013;28;20470;-77
2024/02/07 03:08:39;;;;;;;9.05;4.32;;;11.90;99.90;;;;;;5021956;28;20033;-77
2024/02/07 03:11:06;;;;;;;10.05;4.63;;;11.90;99.90;;;;;;5021200;28;20560;-77
2024/02/07 03:13:31;;;;;;;7.03;3.85;;;11.90;99.90;;;;;;5021629;28;20168;-77
2024/02/07 03:15:57;;;;;;;11.20;4.15;;;12.00;99.90;;;;;;5022526;28;20538;-76
2024/02/07 03:18:23;;;;;;;7.47;3.35;;;12.10;99.90;;;;;;5025008;28;20033;-76
2024/02/07 03:20:52;;;;;;;1.90;1.50;;;12.00;99.90;;;;;;5020538;28;20105;-77
2024/02/07 03:23:17;;;;;;;5.55;1.70;;;11.80;99.90;;;;;;5024314;28;20025;-78
2024/02/07 03:25:43;;;;;;;5.50;1.50;;;11.60;99.90;;;;;;5029068;28;20390;-78
2024/02/07 03:28:11;;;;;;;6.07;1.67;;;11.50;99.90;;;;;;5029823;28;20075;-78
2024/02/07 03:30:36;;;;;;;4.43;1.65;;;11.10;99.90;;;;;;5018424;28;20120;-78
2024/02/07 03:33:02;;;;;;;3.33;1.60;;;11.00;99.90;;;;;;5022944;28;20156;-79
2024/02/07 03:35:28;;;;;;;5.10;2.00;;;10.90;99.90;;;;;;5020489;28;20037;-77
2024/02/07 03:37:56;;;;;;;2.53;1.30;;;10.90;99.90;;;;;;5020432;28;20037;-77
2024/02/07 03:40:22;;;;;;;6.03;1.50;;;10.60;99.90;;;;;;5016742;28;20501;-77
2024/02/07 03:42:47;;;;;;;1.80;1.35;;;10.20;99.90;;;;;;5022363;28;20025;-77
2024/02/07 03:45:17;;;;;;;1.95;1.05;;;10.20;99.90;;;;;;5035035;28;20351;-77
2024/02/07 03:47:45;;;;;;;2.08;1.30;;;10.20;99.90;;;;;;5032400;28;20029;-76
2024/02/07 03:50:14;;;;;;;2.72;1.10;;;10.30;99.90;;;;;;5021101;28;20499;-76
2024/02/07 03:52:42;;;;;;;1.70;0.90;;;10.30;99.90;;;;;;5026195;28;20059;-76
2024/02/07 03:55:10;;;;;;;3.45;1.10;;;10.20;99.90;;;;;;5033840;28;20488;-77
2024/02/07 03:57:36;;;;;;;5.63;1.33;;;10.10;99.90;;;;;;5030087;28;20029;-76
2024/02/07 04:00:09;;;;;;;1.50;1.30;;;10.00;99.90;;;;;;5032599;28;20033;-77
2024/02/07 04:02:38;;;;;;;3.60;1.20;;;9.90;99.90;;;;;;5019116;28;20022;-77
2024/02/07 04:05:04;;;;;;;1.33;1.23;;;9.80;99.90;;;;;;5023212;28;20072;-80
2024/02/07 04:07:30;;;;;;;3.38;1.30;;;9.80;99.90;;;;;;5022949;28;20022;-77
2024/02/07 04:09:57;;;;;;;4.80;1.42;;;9.80;99.90;;;;;;5024325;28;20036;-77
2024/02/07 05:17:25;;;;;;;3.28;1.35;;;8.80;99.90;;;;;;5034053;28;20029;-77
2024/02/07 05:19:51;;;;;;;6.88;1.55;;;8.80;99.90;;;;;;5033205;28;20505;-78
2024/02/07 05:22:18;;;;;;;6.82;1.30;;;8.80;99.90;;;;;;5033814;28;20371;-78
2024/02/07 05:24:46;;;;;;;6.70;0.90;;;8.80;99.90;;;;;;5020426;28;20379;-77
2024/02/07 05:27:12;;;;;;;4.25;1.08;;;8.80;99.90;;;;;;5031758;28;20506;-77
2024/02/07 05:29:41;;;;;;;6.32;1.33;;;8.70;99.90;;;;;;5034151;28;20034;-77
2024/02/07 05:32:08;;;;;;;6.80;1.13;;;8.70;99.90;;;;;;5033320;28;20087;-77
2024/02/07 05:34:34;;;;;;;5.10;1.60;;;8.70;99.90;;;;;;5033602;28;20048;-77
2024/02/07 05:37:01;;;;;;;6.82;1.30;;;8.70;99.90;;;;;;5033897;28;20020;-77
2024/02/07 05:39:27;;;;;;;11.15;2.10;;;8.70;99.90;;;;;;5032110;28;20116;-76
2024/02/07 05:41:53;;;;;;;5.82;1.60;;;8.70;99.90;;;;;;5033627;28;20147;-76
2024/02/07 05:44:19;;;;;;;7.10;1.85;;;8.90;99.90;;;;;;5033731;28;20501;-78
2024/02/07 05:46:45;;;;;;;8.15;1.98;;;8.70;99.90;;;;;;5034395;28;20024;-76
2024/02/07 05:49:13;;;;;;;6.88;1.70;;;8.70;99.90;;;;;;5032216;28;20518;-76
2024/02/07 05:51:39;;;;;;;2.97;1.58;;;8.80;99.90;;;;;;5033237;28;20087;-76
2024/02/07 05:54:07;;;;;;;5.10;2.00;;;8.80;99.90;;;;;;5033125;28;20067;-77
2024/02/07 05:56:33;;;;;;;7.20;1.52;;;8.80;99.90;;;;;;5033683;28;20100;-76
2024/02/07 05:58:59;;;;;;;6.18;1.40;;;8.70;99.90;;;;;;5033510;28;20038;-78
2024/02/07 06:01:26;;;;;;;4.97;1.30;;;8.70;99.90;;;;;;5033449;28;20034;-78
2024/02/07 06:03:55;;;;;;;4.75;1.60;;;8.80;99.90;;;;;;5020573;28;20026;-77
2024/02/07 06:06:24;;;;;;;7.85;1.88;;;8.80;99.90;;;;;;5032986;28;20014;-78
2024/02/07 06:08:52;;;;;;;5.20;1.40;;;8.70;99.90;;;;;;5032655;28;20022;-77
2024/02/07 06:11:18;;;;;;;5.10;1.40;;;8.70;99.90;;;;;;5033315;28;20042;-78
2024/02/07 06:13:45;;;;;;;6.00;1.80;;;8.80;99.90;;;;;;5032773;28;20037;-75
2024/02/07 06:16:10;;;;;;;5.25;1.48;;;8.70;99.90;;;;;;5032348;28;20032;-78
2024/02/07 06:18:36;;;;;;;6.30;1.50;;;8.70;99.90;;;;;;5031532;28;20466;-76
2024/02/07 06:21:02;;;;;;;6.18;1.55;;;8.80;99.90;;;;;;5020898;28;20068;-76
2024/02/07 06:23:28;;;;;;;5.32;1.27;;;8.80;99.90;;;;;;5032893;28;20490;-75
2024/02/07 06:25:54;;;;;;;6.72;1.30;;;8.80;99.90;;;;;;5033089;28;20056;-76
2024/02/07 06:28:19;;;;;;;4.88;1.58;;;8.90;99.90;;;;;;5031805;28;20025;-75
2024/02/07 06:30:47;;;;;;;9.90;1.85;;;8.90;99.90;;;;;;5032269;28;20125;-74
2024/02/07 06:33:12;;;;;;;9.88;2.50;;;8.90;99.90;;;;;;5031124;28;20041;-74
2024/02/07 06:35:38;;;;;;;5.07;1.08;;;8.90;99.90;;;;;;5032862;28;20406;-74
2024/02/07 06:38:04;;;;;;;4.88;1.67;;;8.80;99.90;;;;;;5018798;28;20105;-74
2024/02/07 06:40:29;;;;;;;5.63;1.50;;;8.80;99.90;;;;;;5021564;28;20030;-74
2024/02/07 06:42:56;;;;;;;8.13;1.17;;;8.70;99.90;;;;;;5031188;28;20447;-74
2024/02/07 06:45:21;;;;;;;9.77;1.63;;;8.70;99.90;;;;;;5032484;28;20048;-74
2024/02/07 06:47:47;;;;;;;4.70;1.30;;;8.60;99.90;;;;;;5032397;28;20494;-74
2024/02/07 06:50:13;;;;;;;7.60;1.30;;;8.60;99.90;;;;;;5032208;28;20013;-74
2024/02/07 06:52:40;;;;;;;6.65;1.35;;;8.60;99.90;;;;;;5030722;28;20029;-74
2024/02/07 06:55:06;;;;;;;6.40;1.30;;;8.60;99.90;;;;;;5032386;28;20036;-74
2024/02/07 06:57:32;;;;;;;6.80;1.20;;;8.70;99.90;;;;;;5033654;28;20014;-74
2024/02/07 06:59:57;;;;;;;6.25;1.10;;;8.70;99.90;;;;;;5042969;28;20032;-74
2024/02/07 07:02:23;;;;;;;7.72;1.45;;;8.60;99.90;;;;;;5018815;28;20030;-73
2024/02/07 07:04:49;;;;;;;6.75;1.20;;;8.70;99.90;;;;;;5030599;28;20091;-74
2024/02/07 07:07:15;;;;;;;10.68;1.50;;;8.70;99.90;;;;;;5030867;28;20021;-74
2024/02/07 07:09:41;;;;;;;9.45;1.50;;;8.80;99.90;;;;;;5031992;28;20056;-74
2024/02/07 07:12:07;;;;;;;5.97;1.30;;;8.80;99.90;;;;;;5031133;28;20028;-74
2024/02/07 07:14:39;;;;;;;11.00;1.35;;;8.90;99.90;;;;;;5032203;28;20042;-74
2024/02/07 07:17:05;;;;;;;8.05;1.58;;;8.90;99.90;;;;;;5032021;28;20021;-73
2024/02/07 07:19:30;;;;;;;5.50;1.30;;;8.90;99.90;;;;;;5030450;28;20029;-74
2024/02/07 07:21:56;;;;;;;11.18;1.65;;;8.80;99.90;;;;;;5031838;28;20021;-73
2024/02/07 07:24:22;;;;;;;6.30;1.42;;;8.90;99.90;;;;;;5031890;28;20064;-73
2024/02/07 07:26:47;;;;;;;5.88;1.75;;;8.90;99.90;;;;;;5030925;28;20030;-73
2024/02/07 07:29:13;;;;;;;4.28;1.30;;;8.90;99.90;;;;;;5029447;28;20482;-73
2024/02/07 07:31:39;;;;;;;8.57;1.80;;;8.80;99.90;;;;;;5013095;28;20391;-74
2024/02/07 07:34:04;;;;;;;8.20;2.20;;;8.70;99.90;;;;;;5029484;28;20053;-74
2024/02/07 07:36:30;;;;;;;8.55;1.70;;;8.70;99.90;;;;;;5023527;28;20511;-74
2024/02/07 07:38:56;;;;;;;7.95;1.50;;;8.70;99.90;;;;;;5017327;28;20705;-74
2024/02/07 07:41:22;;;;;;;4.85;1.70;;;8.70;99.90;;;;;;5023144;28;20376;-74
2024/02/07 07:43:48;;;;;;;6.18;1.60;;;8.80;99.90;;;;;;5027414;28;20025;-74
2024/02/07 07:46:13;;;;;;;6.88;2.03;;;8.70;99.90;;;;;;5030318;28;20462;-74
2024/02/07 07:48:39;;;;;;;8.85;1.70;;;8.70;99.90;;;;;;5031668;28;20043;-74
2024/02/07 07:51:06;;;;;;;10.80;2.20;;;8.80;99.90;;;;;;5027138;28;20029;-74
2024/02/07 07:53:32;;;;;;;6.80;2.45;;;8.80;99.90;;;;;;5025368;28;20041;-74
2024/02/07 07:55:58;;;;;;;8.48;2.30;;;8.80;99.90;;;;;;5029576;28;20470;-74
2024/02/07 07:58:23;;;;;;;9.13;2.97;;;8.80;99.90;;;;;;5031371;28;20086;-74
2024/02/07 08:00:49;;;;;;;5.03;2.08;;;8.80;99.90;;;;;;5031166;28;20041;-74
2024/02/07 08:03:15;;;;;;;7.28;2.60;;;8.60;99.90;;;;;;5030151;28;20018;-74
2024/02/07 08:05:41;;;;;;;11.35;2.83;;;8.60;99.90;;;;;;5022899;28;20448;-75
2024/02/07 08:08:08;;;;;;;5.25;2.80;;;8.60;99.90;;;;;;5020980;28;20026;-75
2024/02/07 08:10:37;;;;;;;8.82;2.88;;;8.60;99.90;;;;;;5031431;28;20075;-75
2024/02/07 08:13:04;;;;;;;9.15;2.95;;;8.60;99.90;;;;;;5024975;28;20030;-77
2024/02/07 08:15:29;;;;;;;7.55;2.80;;;8.70;99.90;;;;;;5026302;28;20026;-77
2024/02/07 08:17:57;;;;;;;8.02;2.58;;;8.70;99.90;;;;;;5026796;28;20029;-75
2024/02/07 08:20:24;;;;;;;8.48;2.60;;;8.70;99.90;;;;;;5017718;28;20022;-77
2024/02/07 08:22:50;;;;;;;9.98;3.13;;;8.70;99.90;;;;;;5027205;28;20574;-76
2024/02/07 08:25:16;;;;;;;5.68;2.42;;;8.70;99.90;;;;;;5029012;28;20028;-77
2024/02/07 08:27:41;;;;;;;6.68;2.85;;;8.70;99.90;;;;;;5029654;28;20029;-76
2024/02/07 08:30:07;;;;;;;10.63;2.70;;;8.70;99.90;;;;;;5031006;28;20029;-76
2024/02/07 08:32:33;;;;;;;6.78;2.50;;;8.70;99.90;;;;;;5033375;28;20029;-76
2024/02/07 08:35:02;;;;;;;7.78;2.05;;;8.80;99.90;;;;;;5024100;28;20091;-78
2024/02/07 08:37:28;;;;;;;11.52;2.40;;;8.80;99.90;;;;;;5030967;28;20030;-76
2024/02/07 08:39:54;;;;;;;6.95;2.67;;;8.80;99.90;;;;;;5027925;28;20095;-77
2024/02/07 08:42:20;;;;;;;9.25;2.75;;;8.70;99.90;;;;;;5021181;28;20096;-78
2024/02/07 08:44:46;;;;;;;6.90;2.88;;;8.70;99.90;;;;;;5032992;28;20029;-75
2024/02/07 08:47:11;;;;;;;10.32;2.90;;;8.80;99.90;;;;;;5034547;28;20025;-75
2024/02/07 08:49:37;;;;;;;14.05;2.78;;;8.60;99.90;;;;;;5033124;28;20029;-74
2024/02/07 08:52:03;;;;;;;7.80;3.00;;;8.70;99.90;;;;;;5029784;28;20049;-75
2024/02/07 08:54:32;;;;;;;11.70;3.10;;;8.60;99.90;;;;;;5034196;28;20425;-76
2024/02/07 08:56:58;;;;;;;8.68;3.17;;;8.60;99.90;;;;;;5033806;28;20030;-76
2024/02/07 08:59:23;;;;;;;8.30;2.85;;;8.60;99.90;;;;;;5027068;28;20041;-76
2024/02/07 09:01:49;;;;;;;11.63;3.63;;;8.70;99.90;;;;;;5031431;28;20030;-74
2024/02/07 09:04:15;;;;;;;12.95;3.20;;;8.70;99.90;;;;;;5027272;28;20029;-75
2024/02/07 09:06:40;;;;;;;10.23;3.15;;;8.70;99.90;;;;;;5028277;28;20053;-76
2024/02/07 09:09:06;;;;;;;8.57;2.95;;;8.50;99.90;;;;;;5034270;28;20047;-76
2024/02/07 09:11:32;;;;;;;13.55;3.10;;;8.50;99.90;;;;;;5032765;28;20386;-77
2024/02/07 09:13:58;;;;;;;6.95;3.63;;;8.50;99.90;;;;;;5032218;28;20037;-75
2024/02/07 09:16:24;;;;;;;11.13;3.03;;;8.60;99.90;;;;;;5032360;28;20036;-75
2024/02/07 09:18:52;;;;;;;9.90;3.35;;;8.70;99.90;;;;;;5033528;28;20025;-76
2024/02/07 09:21:18;;;;;;;9.30;2.40;;;8.70;99.90;;;;;;5032836;28;20403;-76
2024/02/07 09:23:46;;;;;;;6.95;2.60;;;8.60;99.90;;;;;;5033894;28;20029;-75
2024/02/07 09:26:12;;;;;;;8.82;3.10;;;8.60;99.90;;;;;;5033897;28;20140;-75
2024/02/07 09:28:37;;;;;;;7.65;2.50;;;8.60;99.90;;;;;;5020558;28;20037;-75
2024/02/07 09:31:03;;;;;;;7.05;2.90;;;8.50;99.90;;;;;;5032864;28;20051;-75
2024/02/07 09:33:29;;;;;;;9.48;3.10;;;8.60;99.90;;;;;;5033995;28;20436;-75
2024/02/07 09:35:58;;;;;;;13.23;3.28;;;8.70;99.90;;;;;;5034210;28;20021;-76
2024/02/07 09:38:26;;;;;;;8.40;2.65;;;8.70;99.90;;;;;;5034077;28;20505;-75
2024/02/07 09:40:57;;;;;;;10.25;3.00;;;8.70;99.90;;;;;;5032529;28;20025;-76
2024/02/07 09:43:26;;;;;;;10.48;2.90;;;8.60;99.90;;;;;;5032800;28;20018;-76
2024/02/07 09:46:05;;;;;;;8.57;3.05;;;8.70;99.90;;;;;;5032622;28;20030;-76
2024/02/07 09:48:31;;;;;;;6.72;3.38;;;8.40;99.90;;;;;;5032223;28;20029;-76
2024/02/07 09:51:00;;;;;;;12.45;3.78;;;8.50;99.90;;;;;;5034066;28;20489;-76
2024/02/07 09:53:27;;;;;;;11.05;3.67;;;8.40;99.90;;;;;;5032974;28;20486;-76
2024/02/07 09:55:54;;;;;;;11.80;3.25;;;8.50;99.90;;;;;;5031410;28;20021;-76
2024/02/07 09:58:20;;;;;;;11.07;3.65;;;8.50;99.90;;;;;;5033510;28;20505;-75
2024/02/07 10:00:52;;;;;;;9.23;4.05;;;8.60;99.90;;;;;;5033174;28;20044;-75
2024/02/07 10:03:24;;;;;;;11.05;3.78;;;8.70;99.90;;;;;;5033749;28;20026;-76
2024/02/07 10:05:52;;;;;;;14.05;4.80;;;8.80;99.90;;;;;;5033192;28;20499;-75
2024/02/07 10:08:18;;;;;;;9.02;4.95;;;8.80;99.90;;;;;;5023990;28;20029;-75
2024/02/07 10:10:48;;;;;;;15.02;5.53;;;8.70;99.90;;;;;;5027391;28;20396;-75
2024/02/07 10:13:17;;;;;;;7.75;4.47;;;8.70;99.90;;;;;;5032592;28;20032;-74
2024/02/07 10:15:44;;;;;;;11.85;4.68;;;8.60;99.90;;;;;;5029591;28;20040;-72
2024/02/07 10:18:10;;;;;;;14.20;4.70;;;8.60;99.90;;;;;;5023862;28;20024;-73
2024/02/07 10:20:37;;;;;;;17.58;5.65;;;8.80;99.90;;;;;;5028789;28;20032;-73
2024/02/07 10:23:07;;;;;;;14.50;5.60;;;8.80;99.90;;;;;;4992891;28;20056;-72
2024/02/07 10:25:33;;;;;;;12.13;4.50;;;8.70;99.90;;;;;;5031140;28;20474;-75
2024/02/07 10:28:06;;;;;;;8.77;4.18;;;8.70;99.90;;;;;;5034644;28;20025;-74
2024/02/07 10:30:32;;;;;;;8.82;4.30;;;8.60;99.90;;;;;;5029359;28;20079;-74
2024/02/07 10:32:58;;;;;;;10.45;4.93;;;8.60;99.90;;;;;;5034174;28;20025;-73
2024/02/07 10:35:24;;;;;;;13.70;4.78;;;8.60;99.90;;;;;;5037394;28;20036;-74
2024/02/07 10:37:55;;;;;;;17.52;5.32;;;8.50;99.90;;;;;;5034910;28;20175;-74
2024/02/07 10:40:21;;;;;;;14.05;4.85;;;8.50;99.90;;;;;;5038487;28;20032;-73
2024/02/07 10:42:57;;;;;;;12.35;4.93;;;8.40;99.90;;;;;;5033614;28;20032;-73
2024/02/07 10:45:23;;;;;;;14.40;5.60;;;8.50;99.90;;;;;;5038594;28;20020;-74
2024/02/07 10:47:52;;;;;;;12.88;4.90;;;8.50;99.90;;;;;;5036397;28;20026;-74
2024/02/07 10:50:20;;;;;;;14.75;4.30;;;8.50;99.90;;;;;;5033897;28;20018;-75
2024/02/07 10:52:47;;;;;;;12.80;4.30;;;8.40;99.90;;;;;;5038364;28;20056;-74
2024/02/07 10:55:13;;;;;;;12.93;4.15;;;8.20;99.90;;;;;;5037140;28;20025;-73
2024/02/07 10:57:45;;;;;;;16.10;4.65;;;8.20;99.90;;;;;;5037922;28;20028;-73
2024/02/07 11:00:12;;;;;;;17.15;4.70;;;8.10;99.90;;;;;;5036491;28;20099;-73
2024/02/07 11:02:38;;;;;;;13.93;4.88;;;8.20;99.90;;;;;;5031755;28;20021;-74
2024/02/07 11:05:05;;;;;;;12.02;5.32;;;8.30;99.90;;;;;;5039538;28;20020;-74
2024/02/07 11:07:32;;;;;;;18.98;5.70;;;8.20;99.90;;;;;;5036553;28;20029;-73
2024/02/07 11:09:58;;;;;;;15.60;7.53;;;8.40;99.90;;;;;;5038729;28;20078;-73
2024/02/07 11:12:24;;;;;;;11.98;5.43;;;8.30;99.90;;;;;;5041944;28;20114;-76
2024/02/07 11:14:52;;;;;;;14.77;5.68;;;8.40;99.90;;;;;;5035998;28;20049;-76
2024/02/07 11:17:18;;;;;;;15.57;4.85;;;8.50;99.90;;;;;;5034574;28;20086;-76
2024/02/07 11:19:44;;;;;;;13.95;4.88;;;8.60;99.90;;;;;;5029257;28;20028;-74
2024/02/07 11:22:33;;;;;;;12.93;4.47;;;8.70;99.90;;;;;;5033473;28;20120;-75
2024/02/07 11:25:00;;;;;;;13.00;4.13;;;8.70;99.90;;;;;;5037388;28;20017;-75
2024/02/07 11:27:26;;;;;;;17.60;4.80;;;8.60;99.90;;;;;;5036720;28;20064;-75
2024/02/07 11:29:54;;;;;;;11.90;4.63;;;8.60;99.90;;;;;;5034551;28;20438;-73
2024/02/07 11:32:20;;;;;;;13.65;4.20;;;8.70;99.90;;;;;;5036301;28;20232;-73
2024/02/07 11:34:53;;;;;;;12.15;3.95;;;8.60;99.90;;;;;;5033914;28;20409;-74
2024/02/07 11:37:20;;;;;;;18.50;3.50;;;8.60;99.90;;;;;;5037238;28;20025;-73
2024/02/07 11:39:49;;;;;;;18.17;4.15;;;8.60;99.90;;;;;;5031983;28;20022;-74
2024/02/07 11:42:18;;;;;;;16.50;3.58;;;8.60;99.90;;;;;;5032374;28;20031;-75
2024/02/07 11:44:59;;;;;;;10.45;3.55;;;8.40;99.90;;;;;;5039409;28;20021;-74
2024/02/07 11:47:27;;;;;;;12.73;3.20;;;8.50;99.90;;;;;;5035855;28;20116;-76
2024/02/07 11:49:57;;;;;;;17.75;4.63;;;8.50;99.90;;;;;;5030568;28;20363;-74
2024/02/07 11:52:30;;;;;;;13.55;3.72;;;8.60;99.90;;;;;;5030642;28;20033;-74
2024/02/07 11:55:14;;;;;;;16.67;4.60;;;8.70;99.90;;;;;;5037358;28;20086;-74
2024/02/07 11:57:57;;;;;;;11.95;3.10;;;8.80;99.90;;;;;;5036189;28;20263;-76
2024/02/07 12:00:22;;;;;;;18.67;5.07;;;8.70;99.90;;;;;;5033403;28;20465;-77
2024/02/07 12:02:59;;;;;;;13.57;4.07;;;8.70;99.90;;;;;;5034347;28;20032;-79
2024/02/07 12:05:25;;;;;;;14.48;3.45;;;8.70;99.90;;;;;;5035145;28;20030;-79
2024/02/07 12:07:53;;;;;;;15.45;4.20;;;8.70;99.90;;;;;;5039499;28;20096;-78
2024/02/07 12:10:19;;;;;;;15.07;3.28;;;8.70;99.90;;;;;;5039490;28;20027;-80
2024/02/07 12:12:49;;;;;;;15.23;2.88;;;8.80;99.90;;;;;;5037903;28;20026;-75
2024/02/07 12:15:15;;;;;;;16.98;3.33;;;8.80;99.90;;;;;;5039594;28;20038;-75
2024/02/07 12:17:41;;;;;;;13.18;3.40;;;8.70;99.90;;;;;;5042676;28;20017;-75
2024/02/07 12:20:08;;;;;;;13.85;2.50;;;8.70;99.90;;;;;;5034980;28;20440;-75
2024/02/07 12:22:35;;;;;;;9.55;1.92;;;8.80;99.90;;;;;;5037353;28;20017;-75
2024/02/07 12:25:04;;;;;;;7.07;2.15;;;8.80;99.90;;;;;;5037544;28;20068;-75
2024/02/07 12:27:30;;;;;;;13.82;2.50;;;8.80;99.90;;;;;;5044837;28;20516;-75
2024/02/07 12:29:57;;;;;;;12.10;2.50;;;8.70;99.90;;;;;;5038041;28;20021;-75
2024/02/07 12:32:24;;;;;;;12.82;2.47;;;8.50;99.90;;;;;;5037450;28;20067;-75
2024/02/07 12:34:50;;;;;;;9.10;2.35;;;8.60;99.90;;;;;;5035579;28;20034;-79
2024/02/07 12:37:21;;;;;;;8.52;2.20;;;8.70;99.90;;;;;;5033444;28;20030;-78
2024/02/07 12:39:51;;;;;;;9.15;2.33;;;8.70;99.90;;;;;;5034462;28;20029;-77
2024/02/07 12:42:21;;;;;;;8.32;1.95;;;8.70;99.90;;;;;;5037549;28;20619;-76
2024/02/07 12:44:50;;;;;;;10.55;1.77;;;8.90;99.90;;;;;;5036103;28;20053;-76
2024/02/07 12:47:20;;;;;;;9.77;2.20;;;8.80;99.90;;;;;;5035723;28;20029;-76
2024/02/07 12:49:48;;;;;;;10.10;2.28;;;8.70;99.90;;;;;;5041332;28;20024;-76
2024/02/07 12:52:14;;;;;;;7.88;2.08;;;8.80;99.90;;;;;;5035289;28;20174;-76
2024/02/07 12:54:40;;;;;;;10.40;1.75;;;8.70;99.90;;;;;;5038340;28;20163;-75
2024/02/07 12:57:06;;;;;;;9.02;1.80;;;8.60;99.90;;;;;;5034345;28;20047;-76
2024/02/07 12:59:35;;;;;;;7.60;1.20;;;8.60;99.90;;;;;;5038329;28;20032;-77
2024/02/07 13:02:05;;;;;;;7.88;2.38;;;8.50;99.90;;;;;;5035352;28;20073;-78
2024/02/07 13:04:31;;;;;;;8.05;1.63;;;8.40;99.90;;;;;;5034939;28;20031;-82
2024/02/07 13:06:58;;;;;;;7.65;1.80;;;8.50;99.90;;;;;;5037002;28;20032;-77
2024/02/07 13:09:29;;;;;;;10.45;2.25;;;8.60;99.90;;;;;;5037424;28;20022;-79
2024/02/07 13:11:59;;;;;;;8.35;1.80;;;8.60;99.90;;;;;;5037177;28;20025;-76
2024/02/07 13:14:32;;;;;;;7.80;1.90;;;8.60;99.90;;;;;;5037414;28;20183;-77
2024/02/07 13:16:58;;;;;;;8.43;2.40;;;8.80;99.90;;;;;;5037703;28;20017;-76
2024/02/07 13:19:23;;;;;;;6.85;1.90;;;8.70;99.90;;;;;;5037415;28;20493;-76
2024/02/07 13:21:49;;;;;;;12.02;2.08;;;8.90;99.90;;;;;;5038624;28;20025;-78
2024/02/07 13:24:17;;;;;;;9.68;2.50;;;8.60;99.90;;;;;;5035355;28;20738;-75
2024/02/07 13:26:44;;;;;;;9.18;2.30;;;8.70;99.90;;;;;;5035528;28;20017;-75
2024/02/07 13:29:10;;;;;;;7.30;3.13;;;8.50;99.90;;;;;;5033904;28;20227;-76
2024/02/07 13:31:37;;;;;;;10.18;2.65;;;8.50;99.90;;;;;;5038568;28;20029;-76
2024/02/07 13:34:04;;;;;;;16.13;3.70;;;8.50;99.90;;;;;;5038159;28;20080;-75
2024/02/07 13:36:30;;;;;;;8.85;3.30;;;8.60;99.90;;;;;;5034827;28;20029;-75
2024/02/07 13:38:57;;;;;;;7.05;2.67;;;8.60;99.90;;;;;;5035478;28;20539;-76
2024/02/07 13:41:22;;;;;;;10.82;2.90;;;8.60;99.90;;;;;;5034871;28;20382;-76
2024/02/07 13:43:48;;;;;;;4.78;2.90;;;8.60;99.90;;;;;;5042014;28;20021;-75
2024/02/07 13:46:14;;;;;;;13.85;4.00;;;8.70;99.90;;;;;;5040927;28;20100;-75
2024/02/07 13:48:40;;;;;;;9.18;3.58;;;8.60;99.90;;;;;;5036818;28;20033;-76
2024/02/07 13:51:06;;;;;;;9.27;3.63;;;8.70;99.90;;;;;;5039764;28;20021;-76
2024/02/07 13:53:32;;;;;;;11.82;4.38;;;8.60;99.90;;;;;;5035152;28;20257;-76